sensor_id;sensor_type;location;lat;lon;timestamp;P1;durP1;ratioP1;P2;durP2;ratioP2
5722;SDS011;2886;49.722;8.612;2023-07-24T00:00:40;5.30;;;3.27;;
5722;SDS011;2886;49.722;8.612;2023-07-24T00:03:06;5.33;;;3.77;;
5722;SDS011;2886;49.722;8.612;2023-07-24T00:05:31;4.93;;;3.10;;
5722;SDS011;2886;49.722;8.612;2023-07-24T00:07:57;7.17;;;3.53;;
5722;SDS011;2886;49.722;8.612;2023-07-24T00:10:23;4.17;;;2.90;;
5722;SDS011;2886;49.722;8.612;2023-07-24T00:12:48;7.10;;;3.47;;
5722;SDS011;2886;49.722;8.612;2023-07-24T00:15:14;5.00;;;3.37;;
5722;SDS011;2886;49.722;8.612;2023-07-24T00:17:39;4.73;;;3.30;;
5722;SDS011;2886;49.722;8.612;2023-07-24T00:20:05;5.13;;;3.53;;
5722;SDS011;2886;49.722;8.612;2023-07-24T00:22:32;7.47;;;3.27;;
5722;SDS011;2886;49.722;8.612;2023-07-24T00:24:57;5.00;;;3.57;;
5722;SDS011;2886;49.722;8.612;2023-07-24T00:27:23;4.30;;;3.23;;
5722;SDS011;2886;49.722;8.612;2023-07-24T00:29:48;5.37;;;3.50;;
5722;SDS011;2886;49.722;8.612;2023-07-24T00:32:14;4.43;;;3.20;;
5722;SDS011;2886;49.722;8.612;2023-07-24T00:34:40;6.30;;;3.43;;
5722;SDS011;2886;49.722;8.612;2023-07-24T00:37:05;5.97;;;3.70;;
5722;SDS011;2886;49.722;8.612;2023-07-24T00:39:31;5.37;;;3.50;;
5722;SDS011;2886;49.722;8.612;2023-07-24T00:41:57;6.87;;;3.10;;
5722;SDS011;2886;49.722;8.612;2023-07-24T00:44:23;5.77;;;3.57;;
5722;SDS011;2886;49.722;8.612;2023-07-24T00:46:48;6.00;;;3.23;;
5722;SDS011;2886;49.722;8.612;2023-07-24T00:49:14;4.83;;;3.43;;
5722;SDS011;2886;49.722;8.612;2023-07-24T00:51:41;5.30;;;3.40;;
5722;SDS011;2886;49.722;8.612;2023-07-24T00:54:06;6.97;;;3.60;;
5722;SDS011;2886;49.722;8.612;2023-07-24T00:56:33;5.90;;;3.30;;
5722;SDS011;2886;49.722;8.612;2023-07-24T00:59:00;6.77;;;3.80;;
5722;SDS011;2886;49.722;8.612;2023-07-24T01:01:26;7.50;;;4.70;;
5722;SDS011;2886;49.722;8.612;2023-07-24T01:03:53;5.57;;;3.70;;
5722;SDS011;2886;49.722;8.612;2023-07-24T01:06:21;7.70;;;3.53;;
5722;SDS011;2886;49.722;8.612;2023-07-24T01:08:47;6.57;;;3.67;;
5722;SDS011;2886;49.722;8.612;2023-07-24T01:11:18;6.83;;;4.20;;
5722;SDS011;2886;49.722;8.612;2023-07-24T01:13:56;6.53;;;4.10;;
5722;SDS011;2886;49.722;8.612;2023-07-24T01:16:24;6.30;;;4.20;;
5722;SDS011;2886;49.722;8.612;2023-07-24T01:18:57;6.07;;;3.50;;
5722;SDS011;2886;49.722;8.612;2023-07-24T01:21:29;6.53;;;3.93;;
5722;SDS011;2886;49.722;8.612;2023-07-24T01:26:48;11.67;;;4.23;;
5722;SDS011;2886;49.722;8.612;2023-07-24T01:29:14;6.47;;;3.93;;
5722;SDS011;2886;49.722;8.612;2023-07-24T01:31:40;5.67;;;3.73;;
5722;SDS011;2886;49.722;8.612;2023-07-24T01:34:05;8.00;;;4.30;;
5722;SDS011;2886;49.722;8.612;2023-07-24T01:36:31;6.80;;;4.40;;
5722;SDS011;2886;49.722;8.612;2023-07-24T01:38:56;7.53;;;4.40;;
5722;SDS011;2886;49.722;8.612;2023-07-24T01:41:23;6.47;;;4.10;;
5722;SDS011;2886;49.722;8.612;2023-07-24T01:43:49;8.27;;;4.47;;
5722;SDS011;2886;49.722;8.612;2023-07-24T01:46:15;11.93;;;4.57;;
5722;SDS011;2886;49.722;8.612;2023-07-24T01:48:40;7.97;;;4.20;;
5722;SDS011;2886;49.722;8.612;2023-07-24T01:51:06;9.13;;;4.17;;
5722;SDS011;2886;49.722;8.612;2023-07-24T01:53:31;8.40;;;4.40;;
5722;SDS011;2886;49.722;8.612;2023-07-24T01:55:57;14.13;;;3.97;;
5722;SDS011;2886;49.722;8.612;2023-07-24T01:58:23;5.87;;;4.23;;
5722;SDS011;2886;49.722;8.612;2023-07-24T02:00:49;6.47;;;4.27;;
5722;SDS011;2886;49.722;8.612;2023-07-24T02:03:15;8.50;;;3.87;;
5722;SDS011;2886;49.722;8.612;2023-07-24T02:05:40;6.80;;;4.30;;
5722;SDS011;2886;49.722;8.612;2023-07-24T02:08:06;10.60;;;4.50;;
5722;SDS011;2886;49.722;8.612;2023-07-24T02:10:31;8.57;;;4.40;;
5722;SDS011;2886;49.722;8.612;2023-07-24T02:12:57;8.53;;;4.77;;
5722;SDS011;2886;49.722;8.612;2023-07-24T02:15:23;5.53;;;3.80;;
5722;SDS011;2886;49.722;8.612;2023-07-24T02:17:48;6.80;;;4.50;;
5722;SDS011;2886;49.722;8.612;2023-07-24T02:20:14;7.10;;;3.90;;
5722;SDS011;2886;49.722;8.612;2023-07-24T02:22:39;7.80;;;4.40;;
5722;SDS011;2886;49.722;8.612;2023-07-24T02:25:05;8.67;;;4.50;;
5722;SDS011;2886;49.722;8.612;2023-07-24T02:27:31;7.27;;;4.03;;
5722;SDS011;2886;49.722;8.612;2023-07-24T02:29:59;11.23;;;3.83;;
5722;SDS011;2886;49.722;8.612;2023-07-24T02:32:25;7.90;;;4.37;;
5722;SDS011;2886;49.722;8.612;2023-07-24T02:34:51;6.13;;;4.33;;
5722;SDS011;2886;49.722;8.612;2023-07-24T02:37:17;7.43;;;4.40;;
5722;SDS011;2886;49.722;8.612;2023-07-24T02:39:44;6.57;;;3.87;;
5722;SDS011;2886;49.722;8.612;2023-07-24T02:42:10;8.50;;;4.70;;
5722;SDS011;2886;49.722;8.612;2023-07-24T02:44:35;10.20;;;4.03;;
5722;SDS011;2886;49.722;8.612;2023-07-24T02:47:01;9.90;;;4.87;;
5722;SDS011;2886;49.722;8.612;2023-07-24T02:49:27;10.50;;;5.53;;
5722;SDS011;2886;49.722;8.612;2023-07-24T02:51:53;6.03;;;3.87;;
5722;SDS011;2886;49.722;8.612;2023-07-24T02:54:19;7.50;;;4.30;;
5722;SDS011;2886;49.722;8.612;2023-07-24T02:56:45;8.63;;;4.70;;
5722;SDS011;2886;49.722;8.612;2023-07-24T02:59:10;7.60;;;4.50;;
5722;SDS011;2886;49.722;8.612;2023-07-24T03:01:36;8.33;;;4.57;;
5722;SDS011;2886;49.722;8.612;2023-07-24T03:04:02;8.33;;;4.30;;
5722;SDS011;2886;49.722;8.612;2023-07-24T03:06:28;8.20;;;4.70;;
5722;SDS011;2886;49.722;8.612;2023-07-24T03:08:53;7.77;;;4.63;;
5722;SDS011;2886;49.722;8.612;2023-07-24T03:11:19;10.27;;;5.37;;
5722;SDS011;2886;49.722;8.612;2023-07-24T03:13:44;11.13;;;4.40;;
5722;SDS011;2886;49.722;8.612;2023-07-24T03:16:10;8.50;;;5.07;;
5722;SDS011;2886;49.722;8.612;2023-07-24T03:18:36;9.73;;;4.83;;
5722;SDS011;2886;49.722;8.612;2023-07-24T03:21:02;10.23;;;4.30;;
5722;SDS011;2886;49.722;8.612;2023-07-24T03:23:28;7.73;;;4.40;;
5722;SDS011;2886;49.722;8.612;2023-07-24T03:25:54;6.50;;;4.40;;
5722;SDS011;2886;49.722;8.612;2023-07-24T03:28:19;8.77;;;4.83;;
5722;SDS011;2886;49.722;8.612;2023-07-24T03:30:45;9.60;;;4.73;;
5722;SDS011;2886;49.722;8.612;2023-07-24T03:33:11;8.30;;;4.90;;
5722;SDS011;2886;49.722;8.612;2023-07-24T03:35:37;7.63;;;3.97;;
5722;SDS011;2886;49.722;8.612;2023-07-24T03:38:04;8.27;;;4.50;;
5722;SDS011;2886;49.722;8.612;2023-07-24T03:40:29;8.73;;;4.50;;
5722;SDS011;2886;49.722;8.612;2023-07-24T03:42:55;8.43;;;4.80;;
5722;SDS011;2886;49.722;8.612;2023-07-24T03:45:21;8.93;;;5.17;;
5722;SDS011;2886;49.722;8.612;2023-07-24T03:47:46;8.43;;;4.60;;
5722;SDS011;2886;49.722;8.612;2023-07-24T03:50:12;9.50;;;4.77;;
5722;SDS011;2886;49.722;8.612;2023-07-24T03:52:38;9.90;;;4.63;;
5722;SDS011;2886;49.722;8.612;2023-07-24T03:55:03;10.03;;;4.80;;
5722;SDS011;2886;49.722;8.612;2023-07-24T03:57:29;8.50;;;4.70;;
5722;SDS011;2886;49.722;8.612;2023-07-24T03:59:55;9.80;;;4.63;;
5722;SDS011;2886;49.722;8.612;2023-07-24T04:02:21;7.50;;;4.80;;
5722;SDS011;2886;49.722;8.612;2023-07-24T04:04:47;18.83;;;4.70;;
5722;SDS011;2886;49.722;8.612;2023-07-24T04:07:13;8.33;;;4.80;;
5722;SDS011;2886;49.722;8.612;2023-07-24T04:09:38;10.20;;;5.00;;
5722;SDS011;2886;49.722;8.612;2023-07-24T04:12:04;10.77;;;5.10;;
5722;SDS011;2886;49.722;8.612;2023-07-24T04:14:30;8.07;;;4.37;;
5722;SDS011;2886;49.722;8.612;2023-07-24T04:16:56;7.30;;;4.77;;
5722;SDS011;2886;49.722;8.612;2023-07-24T04:19:21;9.27;;;4.80;;
5722;SDS011;2886;49.722;8.612;2023-07-24T04:21:47;10.40;;;4.83;;
5722;SDS011;2886;49.722;8.612;2023-07-24T04:24:12;7.97;;;4.80;;
5722;SDS011;2886;49.722;8.612;2023-07-24T04:26:38;7.80;;;4.40;;
5722;SDS011;2886;49.722;8.612;2023-07-24T04:29:04;8.50;;;4.23;;
5722;SDS011;2886;49.722;8.612;2023-07-24T04:31:31;9.67;;;4.30;;
5722;SDS011;2886;49.722;8.612;2023-07-24T04:33:56;7.33;;;3.90;;
5722;SDS011;2886;49.722;8.612;2023-07-24T04:36:22;7.37;;;4.73;;
5722;SDS011;2886;49.722;8.612;2023-07-24T04:38:47;8.37;;;4.30;;
5722;SDS011;2886;49.722;8.612;2023-07-24T04:41:13;7.80;;;4.27;;
5722;SDS011;2886;49.722;8.612;2023-07-24T04:43:38;8.50;;;4.23;;
5722;SDS011;2886;49.722;8.612;2023-07-24T04:46:04;7.63;;;4.30;;
5722;SDS011;2886;49.722;8.612;2023-07-24T04:48:30;7.97;;;4.07;;
5722;SDS011;2886;49.722;8.612;2023-07-24T04:50:55;5.40;;;3.80;;
5722;SDS011;2886;49.722;8.612;2023-07-24T04:53:21;6.47;;;4.27;;
5722;SDS011;2886;49.722;8.612;2023-07-24T04:55:47;9.23;;;3.90;;
5722;SDS011;2886;49.722;8.612;2023-07-24T04:58:13;7.13;;;3.97;;
5722;SDS011;2886;49.722;8.612;2023-07-24T05:00:38;6.80;;;4.03;;
5722;SDS011;2886;49.722;8.612;2023-07-24T05:03:05;9.50;;;3.80;;
5722;SDS011;2886;49.722;8.612;2023-07-24T05:05:33;7.10;;;4.37;;
5722;SDS011;2886;49.722;8.612;2023-07-24T05:07:58;7.03;;;3.80;;
5722;SDS011;2886;49.722;8.612;2023-07-24T05:10:24;4.67;;;3.43;;
5722;SDS011;2886;49.722;8.612;2023-07-24T05:12:50;8.80;;;3.93;;
5722;SDS011;2886;49.722;8.612;2023-07-24T05:15:15;6.63;;;3.70;;
5722;SDS011;2886;49.722;8.612;2023-07-24T05:17:42;21.90;;;4.10;;
5722;SDS011;2886;49.722;8.612;2023-07-24T05:20:08;7.13;;;4.00;;
5722;SDS011;2886;49.722;8.612;2023-07-24T05:22:34;8.90;;;4.33;;
5722;SDS011;2886;49.722;8.612;2023-07-24T05:25:00;5.87;;;3.73;;
5722;SDS011;2886;49.722;8.612;2023-07-24T05:27:26;7.00;;;4.23;;
5722;SDS011;2886;49.722;8.612;2023-07-24T05:29:51;11.03;;;4.50;;
5722;SDS011;2886;49.722;8.612;2023-07-24T05:32:17;7.10;;;4.47;;
5722;SDS011;2886;49.722;8.612;2023-07-24T05:34:42;6.97;;;4.30;;
5722;SDS011;2886;49.722;8.612;2023-07-24T05:37:08;8.77;;;5.63;;
5722;SDS011;2886;49.722;8.612;2023-07-24T05:39:34;7.83;;;4.40;;
5722;SDS011;2886;49.722;8.612;2023-07-24T05:42:00;10.03;;;5.00;;
5722;SDS011;2886;49.722;8.612;2023-07-24T05:44:27;8.00;;;4.70;;
5722;SDS011;2886;49.722;8.612;2023-07-24T05:46:53;7.07;;;4.10;;
5722;SDS011;2886;49.722;8.612;2023-07-24T05:49:18;8.83;;;4.57;;
5722;SDS011;2886;49.722;8.612;2023-07-24T05:51:44;6.33;;;4.37;;
5722;SDS011;2886;49.722;8.612;2023-07-24T05:54:09;7.33;;;4.30;;
5722;SDS011;2886;49.722;8.612;2023-07-24T05:56:35;10.50;;;4.93;;
5722;SDS011;2886;49.722;8.612;2023-07-24T05:59:01;6.63;;;4.43;;
5722;SDS011;2886;49.722;8.612;2023-07-24T06:01:26;7.87;;;4.80;;
5722;SDS011;2886;49.722;8.612;2023-07-24T06:03:52;11.50;;;4.60;;
5722;SDS011;2886;49.722;8.612;2023-07-24T06:06:17;7.63;;;4.17;;
5722;SDS011;2886;49.722;8.612;2023-07-24T06:08:44;6.47;;;4.50;;
5722;SDS011;2886;49.722;8.612;2023-07-24T06:11:10;8.30;;;4.33;;
5722;SDS011;2886;49.722;8.612;2023-07-24T06:13:35;8.00;;;4.90;;
5722;SDS011;2886;49.722;8.612;2023-07-24T06:16:01;7.17;;;4.47;;
5722;SDS011;2886;49.722;8.612;2023-07-24T06:18:26;8.23;;;5.07;;
5722;SDS011;2886;49.722;8.612;2023-07-24T06:20:53;8.73;;;5.10;;
5722;SDS011;2886;49.722;8.612;2023-07-24T06:23:18;11.77;;;5.00;;
5722;SDS011;2886;49.722;8.612;2023-07-24T06:25:44;12.17;;;5.87;;
5722;SDS011;2886;49.722;8.612;2023-07-24T06:28:10;12.63;;;5.73;;
5722;SDS011;2886;49.722;8.612;2023-07-24T06:30:35;15.50;;;5.40;;
5722;SDS011;2886;49.722;8.612;2023-07-24T06:33:01;8.90;;;5.23;;
5722;SDS011;2886;49.722;8.612;2023-07-24T06:35:26;11.80;;;5.13;;
5722;SDS011;2886;49.722;8.612;2023-07-24T06:37:52;7.20;;;4.47;;
5722;SDS011;2886;49.722;8.612;2023-07-24T06:40:18;9.03;;;4.77;;
5722;SDS011;2886;49.722;8.612;2023-07-24T06:42:43;8.43;;;4.83;;
5722;SDS011;2886;49.722;8.612;2023-07-24T06:45:10;8.10;;;4.60;;
5722;SDS011;2886;49.722;8.612;2023-07-24T06:47:35;9.00;;;4.97;;
5722;SDS011;2886;49.722;8.612;2023-07-24T06:50:01;9.77;;;5.33;;
5722;SDS011;2886;49.722;8.612;2023-07-24T06:52:27;11.43;;;4.83;;
5722;SDS011;2886;49.722;8.612;2023-07-24T06:54:53;8.80;;;5.20;;
5722;SDS011;2886;49.722;8.612;2023-07-24T06:57:18;7.10;;;4.90;;
5722;SDS011;2886;49.722;8.612;2023-07-24T06:59:44;10.20;;;4.57;;
5722;SDS011;2886;49.722;8.612;2023-07-24T07:02:10;8.80;;;4.93;;
5722;SDS011;2886;49.722;8.612;2023-07-24T07:04:35;9.17;;;5.83;;
5722;SDS011;2886;49.722;8.612;2023-07-24T07:07:01;15.30;;;5.60;;
5722;SDS011;2886;49.722;8.612;2023-07-24T07:09:26;6.90;;;4.80;;
5722;SDS011;2886;49.722;8.612;2023-07-24T07:11:52;8.17;;;5.03;;
5722;SDS011;2886;49.722;8.612;2023-07-24T07:14:17;9.93;;;5.60;;
5722;SDS011;2886;49.722;8.612;2023-07-24T07:16:43;8.40;;;4.73;;
5722;SDS011;2886;49.722;8.612;2023-07-24T07:19:09;9.37;;;5.23;;
5722;SDS011;2886;49.722;8.612;2023-07-24T07:21:35;9.20;;;5.47;;
5722;SDS011;2886;49.722;8.612;2023-07-24T07:24:01;14.00;;;4.67;;
5722;SDS011;2886;49.722;8.612;2023-07-24T07:26:27;9.33;;;5.67;;
5722;SDS011;2886;49.722;8.612;2023-07-24T07:28:54;13.30;;;6.00;;
5722;SDS011;2886;49.722;8.612;2023-07-24T07:31:20;9.70;;;5.30;;
5722;SDS011;2886;49.722;8.612;2023-07-24T07:33:46;11.00;;;5.50;;
5722;SDS011;2886;49.722;8.612;2023-07-24T07:36:13;7.73;;;5.07;;
5722;SDS011;2886;49.722;8.612;2023-07-24T07:38:39;10.93;;;6.10;;
5722;SDS011;2886;49.722;8.612;2023-07-24T07:41:05;8.90;;;5.00;;
5722;SDS011;2886;49.722;8.612;2023-07-24T07:43:32;8.20;;;4.83;;
5722;SDS011;2886;49.722;8.612;2023-07-24T07:45:57;9.97;;;4.97;;
5722;SDS011;2886;49.722;8.612;2023-07-24T07:48:24;11.23;;;5.17;;
5722;SDS011;2886;49.722;8.612;2023-07-24T07:50:50;10.10;;;5.47;;
5722;SDS011;2886;49.722;8.612;2023-07-24T07:53:17;8.47;;;5.63;;
5722;SDS011;2886;49.722;8.612;2023-07-24T07:55:42;8.50;;;5.13;;
5722;SDS011;2886;49.722;8.612;2023-07-24T07:58:08;6.90;;;5.10;;
5722;SDS011;2886;49.722;8.612;2023-07-24T08:00:34;8.50;;;5.10;;
5722;SDS011;2886;49.722;8.612;2023-07-24T08:03:00;9.97;;;5.20;;
5722;SDS011;2886;49.722;8.612;2023-07-24T08:05:25;7.30;;;5.17;;
5722;SDS011;2886;49.722;8.612;2023-07-24T08:07:51;7.60;;;5.03;;
5722;SDS011;2886;49.722;8.612;2023-07-24T08:10:17;8.57;;;5.07;;
5722;SDS011;2886;49.722;8.612;2023-07-24T08:12:43;8.10;;;4.50;;
5722;SDS011;2886;49.722;8.612;2023-07-24T08:15:09;7.77;;;4.13;;
5722;SDS011;2886;49.722;8.612;2023-07-24T08:17:35;13.13;;;5.23;;
5722;SDS011;2886;49.722;8.612;2023-07-24T08:20:00;9.90;;;4.30;;
5722;SDS011;2886;49.722;8.612;2023-07-24T08:22:26;6.73;;;4.60;;
5722;SDS011;2886;49.722;8.612;2023-07-24T08:24:52;10.00;;;4.47;;
5722;SDS011;2886;49.722;8.612;2023-07-24T08:27:17;8.93;;;4.30;;
5722;SDS011;2886;49.722;8.612;2023-07-24T08:29:43;11.27;;;4.77;;
5722;SDS011;2886;49.722;8.612;2023-07-24T08:32:08;10.50;;;5.23;;
5722;SDS011;2886;49.722;8.612;2023-07-24T08:34:34;7.60;;;4.43;;
5722;SDS011;2886;49.722;8.612;2023-07-24T08:37:00;9.63;;;5.63;;
5722;SDS011;2886;49.722;8.612;2023-07-24T08:39:25;7.83;;;5.40;;
5722;SDS011;2886;49.722;8.612;2023-07-24T08:41:51;13.33;;;5.90;;
5722;SDS011;2886;49.722;8.612;2023-07-24T08:44:16;10.77;;;5.83;;
5722;SDS011;2886;49.722;8.612;2023-07-24T08:46:43;11.10;;;5.80;;
5722;SDS011;2886;49.722;8.612;2023-07-24T08:49:13;23.73;;;5.70;;
5722;SDS011;2886;49.722;8.612;2023-07-24T08:51:40;18.07;;;5.43;;
5722;SDS011;2886;49.722;8.612;2023-07-24T08:54:07;17.40;;;5.80;;
5722;SDS011;2886;49.722;8.612;2023-07-24T08:56:33;13.30;;;5.40;;
5722;SDS011;2886;49.722;8.612;2023-07-24T08:58:58;13.07;;;5.47;;
5722;SDS011;2886;49.722;8.612;2023-07-24T09:01:24;8.63;;;5.07;;
5722;SDS011;2886;49.722;8.612;2023-07-24T09:03:50;9.73;;;5.90;;
5722;SDS011;2886;49.722;8.612;2023-07-24T09:06:16;11.37;;;5.23;;
5722;SDS011;2886;49.722;8.612;2023-07-24T09:08:42;9.10;;;4.90;;
5722;SDS011;2886;49.722;8.612;2023-07-24T09:11:09;11.50;;;4.80;;
5722;SDS011;2886;49.722;8.612;2023-07-24T09:13:36;10.57;;;5.10;;
5722;SDS011;2886;49.722;8.612;2023-07-24T09:16:05;10.00;;;5.27;;
5722;SDS011;2886;49.722;8.612;2023-07-24T09:18:40;10.80;;;5.43;;
5722;SDS011;2886;49.722;8.612;2023-07-24T09:21:06;19.60;;;5.80;;
5722;SDS011;2886;49.722;8.612;2023-07-24T09:23:32;6.50;;;4.70;;
5722;SDS011;2886;49.722;8.612;2023-07-24T09:25:57;14.00;;;5.83;;
5722;SDS011;2886;49.722;8.612;2023-07-24T09:28:23;13.40;;;5.80;;
5722;SDS011;2886;49.722;8.612;2023-07-24T09:30:53;6.87;;;4.97;;
5722;SDS011;2886;49.722;8.612;2023-07-24T09:33:41;7.10;;;4.93;;
5722;SDS011;2886;49.722;8.612;2023-07-24T09:36:08;9.63;;;5.53;;
5722;SDS011;2886;49.722;8.612;2023-07-24T09:38:35;9.83;;;4.73;;
5722;SDS011;2886;49.722;8.612;2023-07-24T09:41:02;6.17;;;4.33;;
5722;SDS011;2886;49.722;8.612;2023-07-24T09:43:29;9.73;;;5.13;;
5722;SDS011;2886;49.722;8.612;2023-07-24T09:45:55;10.23;;;5.37;;
5722;SDS011;2886;49.722;8.612;2023-07-24T09:48:22;9.10;;;5.90;;
5722;SDS011;2886;49.722;8.612;2023-07-24T09:50:54;7.57;;;5.33;;
5722;SDS011;2886;49.722;8.612;2023-07-24T09:53:27;7.27;;;5.10;;
5722;SDS011;2886;49.722;8.612;2023-07-24T09:56:09;8.00;;;5.37;;
5722;SDS011;2886;49.722;8.612;2023-07-24T09:58:36;10.57;;;5.43;;
5722;SDS011;2886;49.722;8.612;2023-07-24T10:01:07;13.37;;;5.80;;
5722;SDS011;2886;49.722;8.612;2023-07-24T10:03:34;9.30;;;5.20;;
5722;SDS011;2886;49.722;8.612;2023-07-24T10:06:03;12.30;;;5.53;;
5722;SDS011;2886;49.722;8.612;2023-07-24T10:08:30;10.63;;;4.43;;
5722;SDS011;2886;49.722;8.612;2023-07-24T10:10:56;12.73;;;5.10;;
5722;SDS011;2886;49.722;8.612;2023-07-24T10:13:25;14.90;;;4.83;;
5722;SDS011;2886;49.722;8.612;2023-07-24T10:15:52;8.40;;;5.00;;
5722;SDS011;2886;49.722;8.612;2023-07-24T10:18:27;9.73;;;5.83;;
5722;SDS011;2886;49.722;8.612;2023-07-24T10:21:00;7.73;;;5.23;;
5722;SDS011;2886;49.722;8.612;2023-07-24T10:23:28;7.33;;;4.93;;
5722;SDS011;2886;49.722;8.612;2023-07-24T10:25:54;11.77;;;5.83;;
5722;SDS011;2886;49.722;8.612;2023-07-24T10:28:29;9.20;;;5.30;;
5722;SDS011;2886;49.722;8.612;2023-07-24T10:31:00;6.07;;;4.60;;
5722;SDS011;2886;49.722;8.612;2023-07-24T10:33:29;9.17;;;6.10;;
5722;SDS011;2886;49.722;8.612;2023-07-24T10:36:03;7.80;;;4.43;;
5722;SDS011;2886;49.722;8.612;2023-07-24T10:38:38;9.80;;;4.70;;
5722;SDS011;2886;49.722;8.612;2023-07-24T10:41:06;11.90;;;5.83;;
5722;SDS011;2886;49.722;8.612;2023-07-24T10:43:40;11.43;;;5.83;;
5722;SDS011;2886;49.722;8.612;2023-07-24T10:46:09;8.63;;;5.27;;
5722;SDS011;2886;49.722;8.612;2023-07-24T10:48:35;7.00;;;4.97;;
5722;SDS011;2886;49.722;8.612;2023-07-24T10:51:05;11.80;;;5.03;;
5722;SDS011;2886;49.722;8.612;2023-07-24T10:53:34;10.70;;;5.23;;
5722;SDS011;2886;49.722;8.612;2023-07-24T10:56:00;10.47;;;5.13;;
5722;SDS011;2886;49.722;8.612;2023-07-24T10:58:26;12.97;;;4.83;;
5722;SDS011;2886;49.722;8.612;2023-07-24T11:00:52;8.70;;;4.70;;
5722;SDS011;2886;49.722;8.612;2023-07-24T11:03:18;16.83;;;5.13;;
5722;SDS011;2886;49.722;8.612;2023-07-24T11:05:45;5.47;;;4.50;;
5722;SDS011;2886;49.722;8.612;2023-07-24T11:08:15;21.83;;;5.13;;
5722;SDS011;2886;49.722;8.612;2023-07-24T11:10:48;8.40;;;4.80;;
5722;SDS011;2886;49.722;8.612;2023-07-24T11:13:16;9.17;;;4.63;;
5722;SDS011;2886;49.722;8.612;2023-07-24T11:15:43;7.10;;;4.80;;
5722;SDS011;2886;49.722;8.612;2023-07-24T11:18:09;16.53;;;4.60;;
5722;SDS011;2886;49.722;8.612;2023-07-24T11:20:54;12.13;;;4.93;;
5722;SDS011;2886;49.722;8.612;2023-07-24T11:23:21;9.73;;;5.40;;
5722;SDS011;2886;49.722;8.612;2023-07-24T11:25:51;9.80;;;5.20;;
5722;SDS011;2886;49.722;8.612;2023-07-24T11:28:18;8.57;;;4.73;;
5722;SDS011;2886;49.722;8.612;2023-07-24T11:30:44;8.30;;;4.10;;
5722;SDS011;2886;49.722;8.612;2023-07-24T11:33:10;8.50;;;4.33;;
5722;SDS011;2886;49.722;8.612;2023-07-24T11:35:39;6.33;;;4.47;;
5722;SDS011;2886;49.722;8.612;2023-07-24T11:38:05;7.57;;;4.27;;
5722;SDS011;2886;49.722;8.612;2023-07-24T11:40:35;7.70;;;5.50;;
5722;SDS011;2886;49.722;8.612;2023-07-24T11:43:03;8.23;;;4.47;;
5722;SDS011;2886;49.722;8.612;2023-07-24T11:45:29;6.60;;;4.77;;
5722;SDS011;2886;49.722;8.612;2023-07-24T11:47:55;12.77;;;5.87;;
5722;SDS011;2886;49.722;8.612;2023-07-24T11:50:21;8.13;;;4.53;;
5722;SDS011;2886;49.722;8.612;2023-07-24T11:52:48;8.13;;;4.47;;
5722;SDS011;2886;49.722;8.612;2023-07-24T11:55:16;9.30;;;5.30;;
5722;SDS011;2886;49.722;8.612;2023-07-24T11:57:43;8.50;;;4.70;;
5722;SDS011;2886;49.722;8.612;2023-07-24T12:00:20;7.80;;;4.73;;
5722;SDS011;2886;49.722;8.612;2023-07-24T12:02:47;13.57;;;5.30;;
5722;SDS011;2886;49.722;8.612;2023-07-24T12:05:13;8.67;;;4.23;;
5722;SDS011;2886;49.722;8.612;2023-07-24T12:07:38;6.80;;;4.70;;
5722;SDS011;2886;49.722;8.612;2023-07-24T12:10:05;7.90;;;4.73;;
5722;SDS011;2886;49.722;8.612;2023-07-24T12:12:52;11.30;;;4.80;;
5722;SDS011;2886;49.722;8.612;2023-07-24T12:15:17;6.90;;;4.53;;
5722;SDS011;2886;49.722;8.612;2023-07-24T12:17:43;8.30;;;4.97;;
5722;SDS011;2886;49.722;8.612;2023-07-24T12:20:08;7.57;;;4.40;;
5722;SDS011;2886;49.722;8.612;2023-07-24T12:22:37;6.00;;;4.40;;
5722;SDS011;2886;49.722;8.612;2023-07-24T12:25:04;8.77;;;4.37;;
5722;SDS011;2886;49.722;8.612;2023-07-24T12:27:32;13.73;;;5.17;;
5722;SDS011;2886;49.722;8.612;2023-07-24T12:29:58;10.97;;;5.30;;
5722;SDS011;2886;49.722;8.612;2023-07-24T12:32:24;6.07;;;4.27;;
5722;SDS011;2886;49.722;8.612;2023-07-24T12:34:50;8.97;;;5.20;;
5722;SDS011;2886;49.722;8.612;2023-07-24T12:37:16;12.43;;;4.83;;
5722;SDS011;2886;49.722;8.612;2023-07-24T12:39:46;13.00;;;5.17;;
5722;SDS011;2886;49.722;8.612;2023-07-24T12:42:12;11.90;;;5.37;;
5722;SDS011;2886;49.722;8.612;2023-07-24T12:44:38;7.13;;;4.43;;
5722;SDS011;2886;49.722;8.612;2023-07-24T12:47:04;8.53;;;5.30;;
5722;SDS011;2886;49.722;8.612;2023-07-24T12:49:30;7.03;;;4.37;;
5722;SDS011;2886;49.722;8.612;2023-07-24T12:51:56;7.83;;;4.20;;
5722;SDS011;2886;49.722;8.612;2023-07-24T12:54:22;7.10;;;4.83;;
5722;SDS011;2886;49.722;8.612;2023-07-24T12:56:48;5.30;;;4.17;;
5722;SDS011;2886;49.722;8.612;2023-07-24T12:59:14;8.77;;;5.60;;
5722;SDS011;2886;49.722;8.612;2023-07-24T13:01:40;7.63;;;4.63;;
5722;SDS011;2886;49.722;8.612;2023-07-24T13:04:06;8.20;;;4.90;;
5722;SDS011;2886;49.722;8.612;2023-07-24T13:06:33;8.23;;;5.23;;
5722;SDS011;2886;49.722;8.612;2023-07-24T13:08:59;7.73;;;5.00;;
5722;SDS011;2886;49.722;8.612;2023-07-24T13:11:24;10.20;;;5.00;;
5722;SDS011;2886;49.722;8.612;2023-07-24T13:13:50;31.87;;;6.33;;
5722;SDS011;2886;49.722;8.612;2023-07-24T13:16:16;10.47;;;5.73;;
5722;SDS011;2886;49.722;8.612;2023-07-24T13:18:42;8.40;;;4.77;;
5722;SDS011;2886;49.722;8.612;2023-07-24T13:21:07;19.20;;;5.40;;
5722;SDS011;2886;49.722;8.612;2023-07-24T13:23:33;10.80;;;5.00;;
5722;SDS011;2886;49.722;8.612;2023-07-24T13:25:59;9.00;;;5.40;;
5722;SDS011;2886;49.722;8.612;2023-07-24T13:28:25;7.30;;;4.23;;
5722;SDS011;2886;49.722;8.612;2023-07-24T13:30:51;8.83;;;5.20;;
5722;SDS011;2886;49.722;8.612;2023-07-24T13:33:16;8.60;;;5.07;;
5722;SDS011;2886;49.722;8.612;2023-07-24T13:35:42;7.00;;;4.80;;
5722;SDS011;2886;49.722;8.612;2023-07-24T13:38:07;13.33;;;5.60;;
5722;SDS011;2886;49.722;8.612;2023-07-24T13:40:33;14.20;;;5.23;;
5722;SDS011;2886;49.722;8.612;2023-07-24T13:42:59;7.93;;;4.83;;
5722;SDS011;2886;49.722;8.612;2023-07-24T13:45:25;10.27;;;5.20;;
5722;SDS011;2886;49.722;8.612;2023-07-24T13:47:51;8.03;;;4.93;;
5722;SDS011;2886;49.722;8.612;2023-07-24T13:50:16;6.97;;;4.73;;
5722;SDS011;2886;49.722;8.612;2023-07-24T13:52:42;8.13;;;5.23;;
5722;SDS011;2886;49.722;8.612;2023-07-24T13:55:07;7.90;;;5.20;;
5722;SDS011;2886;49.722;8.612;2023-07-24T13:57:33;18.90;;;5.47;;
5722;SDS011;2886;49.722;8.612;2023-07-24T13:59:59;6.87;;;4.57;;
5722;SDS011;2886;49.722;8.612;2023-07-24T14:02:24;8.33;;;5.60;;
5722;SDS011;2886;49.722;8.612;2023-07-24T14:04:50;6.37;;;4.60;;
5722;SDS011;2886;49.722;8.612;2023-07-24T14:07:18;7.53;;;4.80;;
5722;SDS011;2886;49.722;8.612;2023-07-24T14:09:43;11.83;;;5.23;;
5722;SDS011;2886;49.722;8.612;2023-07-24T14:12:09;10.70;;;5.07;;
5722;SDS011;2886;49.722;8.612;2023-07-24T14:14:35;9.43;;;5.17;;
5722;SDS011;2886;49.722;8.612;2023-07-24T14:17:00;11.57;;;5.27;;
5722;SDS011;2886;49.722;8.612;2023-07-24T14:19:26;15.17;;;5.63;;
5722;SDS011;2886;49.722;8.612;2023-07-24T14:21:51;7.67;;;5.07;;
5722;SDS011;2886;49.722;8.612;2023-07-24T14:24:17;15.90;;;5.17;;
5722;SDS011;2886;49.722;8.612;2023-07-24T14:26:42;6.10;;;4.37;;
5722;SDS011;2886;49.722;8.612;2023-07-24T14:29:10;14.93;;;4.53;;
5722;SDS011;2886;49.722;8.612;2023-07-24T14:31:36;7.17;;;4.03;;
5722;SDS011;2886;49.722;8.612;2023-07-24T14:34:02;7.33;;;4.13;;
5722;SDS011;2886;49.722;8.612;2023-07-24T14:36:28;5.97;;;3.83;;
5722;SDS011;2886;49.722;8.612;2023-07-24T14:38:59;5.83;;;4.03;;
5722;SDS011;2886;49.722;8.612;2023-07-24T14:41:27;7.73;;;4.50;;
5722;SDS011;2886;49.722;8.612;2023-07-24T14:43:53;7.27;;;4.70;;
5722;SDS011;2886;49.722;8.612;2023-07-24T14:46:18;10.70;;;4.60;;
5722;SDS011;2886;49.722;8.612;2023-07-24T14:48:44;6.40;;;4.17;;
5722;SDS011;2886;49.722;8.612;2023-07-24T14:51:09;7.40;;;4.50;;
5722;SDS011;2886;49.722;8.612;2023-07-24T14:53:35;6.27;;;3.80;;
5722;SDS011;2886;49.722;8.612;2023-07-24T14:56:04;11.57;;;4.30;;
5722;SDS011;2886;49.722;8.612;2023-07-24T14:58:30;9.20;;;4.60;;
5722;SDS011;2886;49.722;8.612;2023-07-24T15:00:55;6.10;;;4.00;;
5722;SDS011;2886;49.722;8.612;2023-07-24T15:03:21;6.50;;;3.63;;
5722;SDS011;2886;49.722;8.612;2023-07-24T15:05:47;6.10;;;4.17;;
5722;SDS011;2886;49.722;8.612;2023-07-24T15:08:13;5.07;;;3.30;;
5722;SDS011;2886;49.722;8.612;2023-07-24T15:10:39;7.30;;;3.77;;